Disclaimer

Please do not use the information listed here in-flight or in-navigation, as they are not provided to us by the airports but are provided by volunteers, so they might be outdated.

Search


Regions


Airport information page

No radio frequency information is available.

Airport informations:
Latitude: 26° 17' 36.01" N
Longitude: 078° 13' 39.91" E
Elevation: 617 feet - 188 meters
Operating hours: N/A
Operating agency: Military
Timezone: UTC+5:30
Fuel: 100/130 octane gasoline, leaded, MIL-L-5572F (GREEN)

80/87 octane gasoline, leaded, MIL-L-5572F (RED)

Jet fuel avaiable but type is unknown.

Runway information:
06/24 - 9000 x 150 feet< - >2743 x 46 meters

Recent METARs:
VIGR 201500Z 00000KT 3000 HZ NSC 20/17 Q1016
VIGR 201500Z 00000KT 3000 HZ NSC 20/17 Q1016
VIGR 201500Z 00000KT 3000 HZ NSC 20/17 Q1016

Airport on the map: